sensor_id;sensor_type;location;lat;lon;timestamp;temperature;humidity
14995;DHT22;7593;49.006;8.372;2024-01-15T00:01:51;-2.00;99.90
14995;DHT22;7593;49.006;8.372;2024-01-15T00:04:18;-2.00;99.90
14995;DHT22;7593;49.006;8.372;2024-01-15T00:06:44;-2.00;99.90
14995;DHT22;7593;49.006;8.372;2024-01-15T00:09:11;-2.00;99.90
14995;DHT22;7593;49.006;8.372;2024-01-15T00:11:38;-2.00;99.90
14995;DHT22;7593;49.006;8.372;2024-01-15T00:14:08;-2.00;99.90
14995;DHT22;7593;49.006;8.372;2024-01-15T00:16:34;-2.00;99.90
14995;DHT22;7593;49.006;8.372;2024-01-15T00:19:07;-2.00;99.90
14995;DHT22;7593;49.006;8.372;2024-01-15T00:21:34;-2.00;99.90
14995;DHT22;7593;49.006;8.372;2024-01-15T00:24:04;-2.00;99.90
14995;DHT22;7593;49.006;8.372;2024-01-15T00:26:31;-2.00;99.90
14995;DHT22;7593;49.006;8.372;2024-01-15T00:28:57;-2.00;99.90
14995;DHT22;7593;49.006;8.372;2024-01-15T00:31:24;-2.00;99.90
14995;DHT22;7593;49.006;8.372;2024-01-15T00:33:51;-2.00;99.90
14995;DHT22;7593;49.006;8.372;2024-01-15T00:36:20;-2.00;99.90
14995;DHT22;7593;49.006;8.372;2024-01-15T00:38:47;-2.00;99.90
14995;DHT22;7593;49.006;8.372;2024-01-15T00:41:13;-2.00;99.90
14995;DHT22;7593;49.006;8.372;2024-01-15T00:43:40;-2.00;99.90
14995;DHT22;7593;49.006;8.372;2024-01-15T00:46:07;-2.00;99.90
14995;DHT22;7593;49.006;8.372;2024-01-15T00:48:34;-2.00;99.90
14995;DHT22;7593;49.006;8.372;2024-01-15T00:51:01;-1.90;99.90
14995;DHT22;7593;49.006;8.372;2024-01-15T00:53:29;-2.00;99.90
14995;DHT22;7593;49.006;8.372;2024-01-15T00:55:56;-1.90;99.90
14995;DHT22;7593;49.006;8.372;2024-01-15T00:58:23;-2.00;99.90
14995;DHT22;7593;49.006;8.372;2024-01-15T01:00:50;-2.00;99.90
14995;DHT22;7593;49.006;8.372;2024-01-15T01:03:17;-2.00;99.90
14995;DHT22;7593;49.006;8.372;2024-01-15T01:05:44;-2.00;99.90
14995;DHT22;7593;49.006;8.372;2024-01-15T01:08:11;-2.00;99.90
14995;DHT22;7593;49.006;8.372;2024-01-15T01:10:39;-2.00;99.90
14995;DHT22;7593;49.006;8.372;2024-01-15T01:13:08;-1.90;99.90
14995;DHT22;7593;49.006;8.372;2024-01-15T01:15:35;-2.00;99.90
14995;DHT22;7593;49.006;8.372;2024-01-15T01:18:02;-2.00;99.90
14995;DHT22;7593;49.006;8.372;2024-01-15T01:20:29;-2.00;99.90
14995;DHT22;7593;49.006;8.372;2024-01-15T01:22:56;-2.00;99.90
14995;DHT22;7593;49.006;8.372;2024-01-15T01:25:23;-2.00;99.90
14995;DHT22;7593;49.006;8.372;2024-01-15T01:27:51;-1.90;99.90
14995;DHT22;7593;49.006;8.372;2024-01-15T01:30:18;-2.00;99.90
14995;DHT22;7593;49.006;8.372;2024-01-15T01:32:44;-1.90;99.90
14995;DHT22;7593;49.006;8.372;2024-01-15T01:35:12;-1.90;99.90
14995;DHT22;7593;49.006;8.372;2024-01-15T01:37:39;-1.90;99.90
14995;DHT22;7593;49.006;8.372;2024-01-15T01:40:07;-1.90;99.90
14995;DHT22;7593;49.006;8.372;2024-01-15T01:42:34;-1.90;99.90
14995;DHT22;7593;49.006;8.372;2024-01-15T01:45:03;-1.90;99.90
14995;DHT22;7593;49.006;8.372;2024-01-15T01:47:30;-1.90;99.90
14995;DHT22;7593;49.006;8.372;2024-01-15T01:49:56;-1.90;99.90
14995;DHT22;7593;49.006;8.372;2024-01-15T01:52:23;-1.90;99.90
14995;DHT22;7593;49.006;8.372;2024-01-15T01:54:49;-1.80;99.90
14995;DHT22;7593;49.006;8.372;2024-01-15T01:57:18;-1.80;99.90
14995;DHT22;7593;49.006;8.372;2024-01-15T01:59:46;-1.80;99.90
14995;DHT22;7593;49.006;8.372;2024-01-15T02:02:14;-1.80;99.90
14995;DHT22;7593;49.006;8.372;2024-01-15T02:04:42;-1.80;99.90
14995;DHT22;7593;49.006;8.372;2024-01-15T02:07:09;-1.80;99.90
14995;DHT22;7593;49.006;8.372;2024-01-15T02:09:36;-1.80;99.90
14995;DHT22;7593;49.006;8.372;2024-01-15T02:12:03;-1.80;99.90
14995;DHT22;7593;49.006;8.372;2024-01-15T02:14:30;-1.80;99.90
14995;DHT22;7593;49.006;8.372;2024-01-15T02:16:57;-1.80;99.90
14995;DHT22;7593;49.006;8.372;2024-01-15T02:19:25;-1.80;99.90
14995;DHT22;7593;49.006;8.372;2024-01-15T02:21:51;-1.80;99.90
14995;DHT22;7593;49.006;8.372;2024-01-15T02:24:20;-1.80;99.90
14995;DHT22;7593;49.006;8.372;2024-01-15T02:26:46;-1.80;99.90
14995;DHT22;7593;49.006;8.372;2024-01-15T02:29:14;-1.80;99.90
14995;DHT22;7593;49.006;8.372;2024-01-15T02:31:41;-1.80;99.90
14995;DHT22;7593;49.006;8.372;2024-01-15T02:34:08;-1.80;99.90
14995;DHT22;7593;49.006;8.372;2024-01-15T02:36:35;-1.80;99.90
14995;DHT22;7593;49.006;8.372;2024-01-15T02:39:01;-1.80;99.90
14995;DHT22;7593;49.006;8.372;2024-01-15T02:41:30;-1.80;99.90
14995;DHT22;7593;49.006;8.372;2024-01-15T02:43:56;-1.70;99.90
14995;DHT22;7593;49.006;8.372;2024-01-15T02:46:23;-1.70;99.90
14995;DHT22;7593;49.006;8.372;2024-01-15T02:48:50;-1.70;99.90
14995;DHT22;7593;49.006;8.372;2024-01-15T02:51:17;-1.70;99.90
14995;DHT22;7593;49.006;8.372;2024-01-15T02:53:44;-1.70;99.90
14995;DHT22;7593;49.006;8.372;2024-01-15T02:56:11;-1.70;99.90
14995;DHT22;7593;49.006;8.372;2024-01-15T02:58:39;-1.70;99.90
14995;DHT22;7593;49.006;8.372;2024-01-15T03:01:06;-1.70;99.90
14995;DHT22;7593;49.006;8.372;2024-01-15T03:03:32;-1.70;99.90
14995;DHT22;7593;49.006;8.372;2024-01-15T03:05:59;-1.60;99.90
14995;DHT22;7593;49.006;8.372;2024-01-15T03:08:27;-1.70;99.90
14995;DHT22;7593;49.006;8.372;2024-01-15T03:10:55;-1.70;99.90
14995;DHT22;7593;49.006;8.372;2024-01-15T03:13:21;-1.60;99.90
14995;DHT22;7593;49.006;8.372;2024-01-15T03:15:49;-1.60;99.90
14995;DHT22;7593;49.006;8.372;2024-01-15T03:18:16;-1.60;99.90
14995;DHT22;7593;49.006;8.372;2024-01-15T03:20:43;-1.60;99.90
14995;DHT22;7593;49.006;8.372;2024-01-15T03:23:10;-1.60;99.90
14995;DHT22;7593;49.006;8.372;2024-01-15T03:25:37;-1.60;99.90
14995;DHT22;7593;49.006;8.372;2024-01-15T03:28:04;-1.60;99.90
14995;DHT22;7593;49.006;8.372;2024-01-15T03:30:44;-1.60;99.90
14995;DHT22;7593;49.006;8.372;2024-01-15T03:33:26;-1.60;99.90
14995;DHT22;7593;49.006;8.372;2024-01-15T03:38:53;-1.60;99.90
14995;DHT22;7593;49.006;8.372;2024-01-15T03:41:20;-1.50;99.90
14995;DHT22;7593;49.006;8.372;2024-01-15T03:43:47;-1.50;99.90
14995;DHT22;7593;49.006;8.372;2024-01-15T03:46:13;-1.50;99.90
14995;DHT22;7593;49.006;8.372;2024-01-15T03:48:41;-1.50;99.90
14995;DHT22;7593;49.006;8.372;2024-01-15T03:51:08;-1.50;99.90
14995;DHT22;7593;49.006;8.372;2024-01-15T03:53:36;-1.50;99.90
14995;DHT22;7593;49.006;8.372;2024-01-15T03:56:03;-1.50;99.90
14995;DHT22;7593;49.006;8.372;2024-01-15T03:58:29;-1.40;99.90
14995;DHT22;7593;49.006;8.372;2024-01-15T04:00:56;-1.50;99.90
14995;DHT22;7593;49.006;8.372;2024-01-15T04:03:23;-1.40;99.90
14995;DHT22;7593;49.006;8.372;2024-01-15T04:05:51;-1.40;99.90
14995;DHT22;7593;49.006;8.372;2024-01-15T04:08:18;-1.50;99.90
14995;DHT22;7593;49.006;8.372;2024-01-15T04:10:44;-1.40;99.90
14995;DHT22;7593;49.006;8.372;2024-01-15T04:13:11;-1.40;99.90
14995;DHT22;7593;49.006;8.372;2024-01-15T04:15:38;-1.40;99.90
14995;DHT22;7593;49.006;8.372;2024-01-15T04:18:05;-1.50;99.90
14995;DHT22;7593;49.006;8.372;2024-01-15T04:20:32;-1.40;99.90
14995;DHT22;7593;49.006;8.372;2024-01-15T04:23:00;-1.40;99.90
14995;DHT22;7593;49.006;8.372;2024-01-15T04:25:27;-1.40;99.90
14995;DHT22;7593;49.006;8.372;2024-01-15T04:27:54;-1.40;99.90
14995;DHT22;7593;49.006;8.372;2024-01-15T04:30:20;-1.50;99.90
14995;DHT22;7593;49.006;8.372;2024-01-15T04:32:47;-1.40;99.90
14995;DHT22;7593;49.006;8.372;2024-01-15T04:35:14;-1.40;99.90
14995;DHT22;7593;49.006;8.372;2024-01-15T04:37:41;-1.40;99.90
14995;DHT22;7593;49.006;8.372;2024-01-15T04:40:10;-1.40;99.90
14995;DHT22;7593;49.006;8.372;2024-01-15T04:42:37;-1.40;99.90
14995;DHT22;7593;49.006;8.372;2024-01-15T04:45:04;-1.40;99.90
14995;DHT22;7593;49.006;8.372;2024-01-15T04:47:31;-1.40;99.90
14995;DHT22;7593;49.006;8.372;2024-01-15T04:49:58;-1.40;99.90
14995;DHT22;7593;49.006;8.372;2024-01-15T04:52:25;-1.40;99.90
14995;DHT22;7593;49.006;8.372;2024-01-15T04:54:52;-1.50;99.90
14995;DHT22;7593;49.006;8.372;2024-01-15T04:57:20;-1.50;99.90
14995;DHT22;7593;49.006;8.372;2024-01-15T04:59:47;-1.40;99.90
14995;DHT22;7593;49.006;8.372;2024-01-15T05:02:14;-1.50;99.90
14995;DHT22;7593;49.006;8.372;2024-01-15T05:04:41;-1.50;99.90
14995;DHT22;7593;49.006;8.372;2024-01-15T05:07:07;-1.40;99.90
14995;DHT22;7593;49.006;8.372;2024-01-15T05:09:34;-1.40;99.90
14995;DHT22;7593;49.006;8.372;2024-01-15T05:12:01;-1.40;99.90
14995;DHT22;7593;49.006;8.372;2024-01-15T05:14:29;-1.40;99.90
14995;DHT22;7593;49.006;8.372;2024-01-15T05:16:56;-1.30;99.90
14995;DHT22;7593;49.006;8.372;2024-01-15T05:19:22;-1.30;99.90
14995;DHT22;7593;49.006;8.372;2024-01-15T05:21:49;-1.30;99.90
14995;DHT22;7593;49.006;8.372;2024-01-15T05:24:16;-1.30;99.90
14995;DHT22;7593;49.006;8.372;2024-01-15T05:26:45;-1.30;99.90
14995;DHT22;7593;49.006;8.372;2024-01-15T05:29:12;-1.30;99.90
14995;DHT22;7593;49.006;8.372;2024-01-15T05:31:40;-1.30;99.90
14995;DHT22;7593;49.006;8.372;2024-01-15T05:34:07;-1.30;99.90
14995;DHT22;7593;49.006;8.372;2024-01-15T05:36:34;-1.30;99.90
14995;DHT22;7593;49.006;8.372;2024-01-15T05:39:00;-1.30;99.90
14995;DHT22;7593;49.006;8.372;2024-01-15T05:41:28;-1.30;99.90
14995;DHT22;7593;49.006;8.372;2024-01-15T05:43:55;-1.30;99.90
14995;DHT22;7593;49.006;8.372;2024-01-15T05:46:21;-1.20;99.90
14995;DHT22;7593;49.006;8.372;2024-01-15T05:48:49;-1.30;99.90
14995;DHT22;7593;49.006;8.372;2024-01-15T05:51:16;-1.30;99.90
14995;DHT22;7593;49.006;8.372;2024-01-15T05:53:43;-1.30;99.90
14995;DHT22;7593;49.006;8.372;2024-01-15T05:56:10;-1.30;99.90
14995;DHT22;7593;49.006;8.372;2024-01-15T05:58:37;-1.30;99.90
14995;DHT22;7593;49.006;8.372;2024-01-15T06:01:03;-1.30;99.90
14995;DHT22;7593;49.006;8.372;2024-01-15T06:03:30;-1.20;99.90
14995;DHT22;7593;49.006;8.372;2024-01-15T06:05:58;-1.30;99.90
14995;DHT22;7593;49.006;8.372;2024-01-15T06:08:25;-1.30;99.90
14995;DHT22;7593;49.006;8.372;2024-01-15T06:10:53;-1.30;99.90
14995;DHT22;7593;49.006;8.372;2024-01-15T06:13:19;-1.30;99.90
14995;DHT22;7593;49.006;8.372;2024-01-15T06:15:46;-1.30;99.90
14995;DHT22;7593;49.006;8.372;2024-01-15T06:18:13;-1.30;99.90
14995;DHT22;7593;49.006;8.372;2024-01-15T06:20:40;-1.20;99.90
14995;DHT22;7593;49.006;8.372;2024-01-15T06:23:08;-1.30;99.90
14995;DHT22;7593;49.006;8.372;2024-01-15T06:25:38;-1.20;99.90
14995;DHT22;7593;49.006;8.372;2024-01-15T06:28:05;-1.20;99.90
14995;DHT22;7593;49.006;8.372;2024-01-15T06:30:32;-1.20;99.90
14995;DHT22;7593;49.006;8.372;2024-01-15T06:32:59;-1.20;99.90
14995;DHT22;7593;49.006;8.372;2024-01-15T06:35:25;-1.20;99.90
14995;DHT22;7593;49.006;8.372;2024-01-15T06:37:52;-1.20;99.90
14995;DHT22;7593;49.006;8.372;2024-01-15T06:40:20;-1.20;99.90
14995;DHT22;7593;49.006;8.372;2024-01-15T06:42:47;-1.20;99.90
14995;DHT22;7593;49.006;8.372;2024-01-15T06:45:14;-1.10;99.90
14995;DHT22;7593;49.006;8.372;2024-01-15T06:47:40;-1.10;99.90
14995;DHT22;7593;49.006;8.372;2024-01-15T06:50:08;-1.10;99.90
14995;DHT22;7593;49.006;8.372;2024-01-15T06:52:34;-1.10;99.90
14995;DHT22;7593;49.006;8.372;2024-01-15T06:55:02;-1.10;99.90
14995;DHT22;7593;49.006;8.372;2024-01-15T06:57:30;-1.10;99.90
14995;DHT22;7593;49.006;8.372;2024-01-15T06:59:57;-1.10;99.90
14995;DHT22;7593;49.006;8.372;2024-01-15T07:02:23;-1.10;99.90
14995;DHT22;7593;49.006;8.372;2024-01-15T07:04:50;-1.10;99.90
14995;DHT22;7593;49.006;8.372;2024-01-15T07:07:17;-1.10;99.90
14995;DHT22;7593;49.006;8.372;2024-01-15T07:09:44;-1.00;99.90
14995;DHT22;7593;49.006;8.372;2024-01-15T07:12:11;-1.00;99.90
14995;DHT22;7593;49.006;8.372;2024-01-15T07:14:39;-1.10;99.90
14995;DHT22;7593;49.006;8.372;2024-01-15T07:17:06;-1.00;99.90
14995;DHT22;7593;49.006;8.372;2024-01-15T07:19:32;-1.00;99.90
14995;DHT22;7593;49.006;8.372;2024-01-15T07:21:59;-1.00;99.90
14995;DHT22;7593;49.006;8.372;2024-01-15T07:24:26;-1.00;99.90
14995;DHT22;7593;49.006;8.372;2024-01-15T07:26:53;-1.00;99.90
14995;DHT22;7593;49.006;8.372;2024-01-15T07:29:19;-1.00;99.90
14995;DHT22;7593;49.006;8.372;2024-01-15T07:31:49;-1.00;99.90
14995;DHT22;7593;49.006;8.372;2024-01-15T07:34:16;-1.00;99.90
14995;DHT22;7593;49.006;8.372;2024-01-15T07:36:43;-1.00;99.90
14995;DHT22;7593;49.006;8.372;2024-01-15T07:39:10;-1.00;99.90
14995;DHT22;7593;49.006;8.372;2024-01-15T07:41:37;-1.00;99.90
14995;DHT22;7593;49.006;8.372;2024-01-15T07:44:05;-1.00;99.90
14995;DHT22;7593;49.006;8.372;2024-01-15T07:46:32;-1.00;99.90
14995;DHT22;7593;49.006;8.372;2024-01-15T07:49:00;-1.00;99.90
14995;DHT22;7593;49.006;8.372;2024-01-15T07:51:27;-0.90;99.90
14995;DHT22;7593;49.006;8.372;2024-01-15T07:53:54;-0.90;99.90
14995;DHT22;7593;49.006;8.372;2024-01-15T07:56:21;-0.90;99.90
14995;DHT22;7593;49.006;8.372;2024-01-15T07:58:48;-0.90;99.90
14995;DHT22;7593;49.006;8.372;2024-01-15T08:01:15;-0.90;99.90
14995;DHT22;7593;49.006;8.372;2024-01-15T08:03:41;-0.90;99.90
14995;DHT22;7593;49.006;8.372;2024-01-15T08:06:10;-0.80;99.90
14995;DHT22;7593;49.006;8.372;2024-01-15T08:08:37;-0.80;99.90
14995;DHT22;7593;49.006;8.372;2024-01-15T08:11:04;-0.80;99.90
14995;DHT22;7593;49.006;8.372;2024-01-15T08:13:30;-0.80;99.90
14995;DHT22;7593;49.006;8.372;2024-01-15T08:15:57;-0.80;99.90
14995;DHT22;7593;49.006;8.372;2024-01-15T08:18:24;-0.80;99.90
14995;DHT22;7593;49.006;8.372;2024-01-15T08:20:51;-0.80;99.90
14995;DHT22;7593;49.006;8.372;2024-01-15T08:23:19;-0.80;99.90
14995;DHT22;7593;49.006;8.372;2024-01-15T08:25:46;-0.80;99.90
14995;DHT22;7593;49.006;8.372;2024-01-15T08:28:13;-0.80;99.90
14995;DHT22;7593;49.006;8.372;2024-01-15T08:30:40;-0.70;99.90
14995;DHT22;7593;49.006;8.372;2024-01-15T08:33:07;-0.80;99.90
14995;DHT22;7593;49.006;8.372;2024-01-15T08:35:33;-0.70;99.90
14995;DHT22;7593;49.006;8.372;2024-01-15T08:38:00;-0.70;99.90
14995;DHT22;7593;49.006;8.372;2024-01-15T08:40:29;-0.70;99.90
14995;DHT22;7593;49.006;8.372;2024-01-15T08:42:56;-0.70;99.90
14995;DHT22;7593;49.006;8.372;2024-01-15T08:45:23;-0.70;99.90
14995;DHT22;7593;49.006;8.372;2024-01-15T08:47:49;-0.70;99.90
14995;DHT22;7593;49.006;8.372;2024-01-15T08:50:16;-0.70;99.90
14995;DHT22;7593;49.006;8.372;2024-01-15T08:52:43;-0.60;99.90
14995;DHT22;7593;49.006;8.372;2024-01-15T08:55:09;-0.60;99.90
14995;DHT22;7593;49.006;8.372;2024-01-15T08:57:39;-0.50;99.90
14995;DHT22;7593;49.006;8.372;2024-01-15T09:00:07;-0.50;99.90
14995;DHT22;7593;49.006;8.372;2024-01-15T09:02:34;-0.50;99.90
14995;DHT22;7593;49.006;8.372;2024-01-15T09:05:01;-0.50;99.90
14995;DHT22;7593;49.006;8.372;2024-01-15T09:07:29;-0.40;99.90
14995;DHT22;7593;49.006;8.372;2024-01-15T09:09:56;-0.40;99.90
14995;DHT22;7593;49.006;8.372;2024-01-15T09:12:24;-0.40;99.90
14995;DHT22;7593;49.006;8.372;2024-01-15T09:14:53;-0.40;99.90
14995;DHT22;7593;49.006;8.372;2024-01-15T09:17:20;-0.40;99.90
14995;DHT22;7593;49.006;8.372;2024-01-15T09:19:47;-0.40;99.90
14995;DHT22;7593;49.006;8.372;2024-01-15T09:22:14;-0.30;99.90
14995;DHT22;7593;49.006;8.372;2024-01-15T09:24:43;-0.30;99.90
14995;DHT22;7593;49.006;8.372;2024-01-15T09:27:10;-0.30;99.90
14995;DHT22;7593;49.006;8.372;2024-01-15T09:29:37;-0.20;99.90
14995;DHT22;7593;49.006;8.372;2024-01-15T09:32:10;-0.20;99.90
14995;DHT22;7593;49.006;8.372;2024-01-15T09:34:38;-0.10;99.90
14995;DHT22;7593;49.006;8.372;2024-01-15T09:37:08;-0.10;99.90
14995;DHT22;7593;49.006;8.372;2024-01-15T09:39:37;-0.10;99.90
14995;DHT22;7593;49.006;8.372;2024-01-15T09:42:05;0.00;99.90
14995;DHT22;7593;49.006;8.372;2024-01-15T09:44:32;0.00;99.90
14995;DHT22;7593;49.006;8.372;2024-01-15T09:46:58;0.10;99.90
14995;DHT22;7593;49.006;8.372;2024-01-15T09:49:26;0.00;99.90
14995;DHT22;7593;49.006;8.372;2024-01-15T09:51:54;0.00;99.90
14995;DHT22;7593;49.006;8.372;2024-01-15T09:54:21;0.10;99.90
14995;DHT22;7593;49.006;8.372;2024-01-15T09:56:47;0.10;99.90
14995;DHT22;7593;49.006;8.372;2024-01-15T09:59:15;0.10;99.90
14995;DHT22;7593;49.006;8.372;2024-01-15T10:01:43;0.10;99.90
14995;DHT22;7593;49.006;8.372;2024-01-15T10:04:10;0.10;99.90
14995;DHT22;7593;49.006;8.372;2024-01-15T10:06:39;0.10;99.90
14995;DHT22;7593;49.006;8.372;2024-01-15T10:09:08;0.10;99.90
14995;DHT22;7593;49.006;8.372;2024-01-15T10:11:36;0.10;99.90
14995;DHT22;7593;49.006;8.372;2024-01-15T10:14:04;0.10;99.90
14995;DHT22;7593;49.006;8.372;2024-01-15T10:16:31;0.10;99.90
14995;DHT22;7593;49.006;8.372;2024-01-15T10:18:58;0.10;99.90
14995;DHT22;7593;49.006;8.372;2024-01-15T10:21:25;0.00;99.90
14995;DHT22;7593;49.006;8.372;2024-01-15T10:23:54;0.00;99.90
14995;DHT22;7593;49.006;8.372;2024-01-15T10:26:24;0.00;99.90
14995;DHT22;7593;49.006;8.372;2024-01-15T10:28:52;0.00;99.90
14995;DHT22;7593;49.006;8.372;2024-01-15T10:31:18;-0.10;99.90
14995;DHT22;7593;49.006;8.372;2024-01-15T10:33:47;-0.10;99.90
14995;DHT22;7593;49.006;8.372;2024-01-15T10:36:16;-0.10;99.90
14995;DHT22;7593;49.006;8.372;2024-01-15T10:38:43;-0.10;99.90
14995;DHT22;7593;49.006;8.372;2024-01-15T10:41:12;-0.20;99.90
14995;DHT22;7593;49.006;8.372;2024-01-15T10:43:39;-0.10;99.90
14995;DHT22;7593;49.006;8.372;2024-01-15T10:46:09;-0.10;99.90
14995;DHT22;7593;49.006;8.372;2024-01-15T10:48:36;-0.10;99.90
14995;DHT22;7593;49.006;8.372;2024-01-15T10:51:04;-0.10;99.90
14995;DHT22;7593;49.006;8.372;2024-01-15T10:53:37;-0.10;99.90
14995;DHT22;7593;49.006;8.372;2024-01-15T10:56:05;-0.10;99.90
14995;DHT22;7593;49.006;8.372;2024-01-15T10:58:34;-0.10;99.90
14995;DHT22;7593;49.006;8.372;2024-01-15T11:01:01;-0.10;99.90
14995;DHT22;7593;49.006;8.372;2024-01-15T11:03:29;-0.10;99.90
14995;DHT22;7593;49.006;8.372;2024-01-15T11:05:55;-0.10;99.90
14995;DHT22;7593;49.006;8.372;2024-01-15T11:08:25;-0.10;99.90
14995;DHT22;7593;49.006;8.372;2024-01-15T11:10:52;-0.10;99.90
14995;DHT22;7593;49.006;8.372;2024-01-15T11:13:21;0.00;99.90
14995;DHT22;7593;49.006;8.372;2024-01-15T11:16:00;-0.10;99.90
14995;DHT22;7593;49.006;8.372;2024-01-15T11:18:28;-0.10;99.90
14995;DHT22;7593;49.006;8.372;2024-01-15T11:21:20;-0.10;99.90
14995;DHT22;7593;49.006;8.372;2024-01-15T11:23:49;-0.10;99.90
14995;DHT22;7593;49.006;8.372;2024-01-15T11:26:32;-0.10;99.90
14995;DHT22;7593;49.006;8.372;2024-01-15T11:29:01;-0.10;99.90
14995;DHT22;7593;49.006;8.372;2024-01-15T11:31:59;-0.10;99.90
14995;DHT22;7593;49.006;8.372;2024-01-15T11:34:58;-0.10;99.90
14995;DHT22;7593;49.006;8.372;2024-01-15T11:37:28;-0.10;99.90
14995;DHT22;7593;49.006;8.372;2024-01-15T11:39:56;-0.10;99.90
14995;DHT22;7593;49.006;8.372;2024-01-15T11:42:23;-0.10;99.90
14995;DHT22;7593;49.006;8.372;2024-01-15T11:44:50;-0.10;99.90
14995;DHT22;7593;49.006;8.372;2024-01-15T11:47:38;-0.10;99.90
14995;DHT22;7593;49.006;8.372;2024-01-15T11:50:08;0.00;99.90
14995;DHT22;7593;49.006;8.372;2024-01-15T11:52:38;0.00;99.90
14995;DHT22;7593;49.006;8.372;2024-01-15T11:55:11;0.00;99.90
14995;DHT22;7593;49.006;8.372;2024-01-15T11:57:45;0.00;99.90
14995;DHT22;7593;49.006;8.372;2024-01-15T12:00:13;0.00;99.90
14995;DHT22;7593;49.006;8.372;2024-01-15T12:02:42;0.00;99.90
14995;DHT22;7593;49.006;8.372;2024-01-15T12:05:09;0.00;99.90
14995;DHT22;7593;49.006;8.372;2024-01-15T12:07:38;0.10;99.90
14995;DHT22;7593;49.006;8.372;2024-01-15T12:10:09;0.10;99.90
14995;DHT22;7593;49.006;8.372;2024-01-15T12:12:49;0.10;99.90
14995;DHT22;7593;49.006;8.372;2024-01-15T12:15:20;0.10;99.90
14995;DHT22;7593;49.006;8.372;2024-01-15T12:17:48;0.10;99.90
14995;DHT22;7593;49.006;8.372;2024-01-15T12:20:15;0.20;99.90
14995;DHT22;7593;49.006;8.372;2024-01-15T12:22:42;0.10;99.90
14995;DHT22;7593;49.006;8.372;2024-01-15T12:25:09;0.20;99.90
14995;DHT22;7593;49.006;8.372;2024-01-15T12:27:36;0.20;99.90
14995;DHT22;7593;49.006;8.372;2024-01-15T12:30:04;0.20;99.90
14995;DHT22;7593;49.006;8.372;2024-01-15T12:32:31;0.20;99.90
14995;DHT22;7593;49.006;8.372;2024-01-15T12:35:00;0.20;99.90
14995;DHT22;7593;49.006;8.372;2024-01-15T12:37:27;0.20;99.90
14995;DHT22;7593;49.006;8.372;2024-01-15T12:39:55;0.30;99.90
14995;DHT22;7593;49.006;8.372;2024-01-15T12:42:22;0.30;99.90
14995;DHT22;7593;49.006;8.372;2024-01-15T12:44:49;0.30;99.90
14995;DHT22;7593;49.006;8.372;2024-01-15T12:47:16;0.30;99.90
14995;DHT22;7593;49.006;8.372;2024-01-15T12:49:46;0.30;99.90
14995;DHT22;7593;49.006;8.372;2024-01-15T12:52:19;0.40;99.90
14995;DHT22;7593;49.006;8.372;2024-01-15T12:54:46;0.40;99.90
14995;DHT22;7593;49.006;8.372;2024-01-15T12:57:13;0.40;99.90
14995;DHT22;7593;49.006;8.372;2024-01-15T12:59:40;0.40;99.90
14995;DHT22;7593;49.006;8.372;2024-01-15T13:02:07;0.50;99.90
14995;DHT22;7593;49.006;8.372;2024-01-15T13:04:34;0.50;99.90
14995;DHT22;7593;49.006;8.372;2024-01-15T13:07:00;0.50;99.90
14995;DHT22;7593;49.006;8.372;2024-01-15T13:09:29;0.60;99.90
14995;DHT22;7593;49.006;8.372;2024-01-15T13:11:56;0.60;99.90
14995;DHT22;7593;49.006;8.372;2024-01-15T13:14:23;0.60;99.90
14995;DHT22;7593;49.006;8.372;2024-01-15T13:16:49;0.60;99.90
14995;DHT22;7593;49.006;8.372;2024-01-15T13:19:17;0.60;99.90
14995;DHT22;7593;49.006;8.372;2024-01-15T13:21:44;0.60;99.90
14995;DHT22;7593;49.006;8.372;2024-01-15T13:24:11;0.70;99.90
14995;DHT22;7593;49.006;8.372;2024-01-15T13:26:39;0.70;99.90
14995;DHT22;7593;49.006;8.372;2024-01-15T13:29:06;0.70;99.90
14995;DHT22;7593;49.006;8.372;2024-01-15T13:31:33;0.70;99.90
14995;DHT22;7593;49.006;8.372;2024-01-15T13:34:00;0.70;99.90
14995;DHT22;7593;49.006;8.372;2024-01-15T13:36:28;0.70;99.90
14995;DHT22;7593;49.006;8.372;2024-01-15T13:38:55;0.80;99.90
14995;DHT22;7593;49.006;8.372;2024-01-15T13:41:22;0.80;99.90
14995;DHT22;7593;49.006;8.372;2024-01-15T13:43:54;0.80;99.90
14995;DHT22;7593;49.006;8.372;2024-01-15T13:46:24;0.80;99.90
14995;DHT22;7593;49.006;8.372;2024-01-15T13:48:51;0.80;99.90
14995;DHT22;7593;49.006;8.372;2024-01-15T13:51:18;0.80;99.90
14995;DHT22;7593;49.006;8.372;2024-01-15T13:53:45;0.70;99.90
14995;DHT22;7593;49.006;8.372;2024-01-15T13:56:12;0.70;99.90
14995;DHT22;7593;49.006;8.372;2024-01-15T13:58:39;0.70;99.90
14995;DHT22;7593;49.006;8.372;2024-01-15T14:01:07;0.70;99.90
14995;DHT22;7593;49.006;8.372;2024-01-15T14:03:33;0.70;99.90
14995;DHT22;7593;49.006;8.372;2024-01-15T14:06:01;0.70;99.90
14995;DHT22;7593;49.006;8.372;2024-01-15T14:08:29;0.70;99.90
14995;DHT22;7593;49.006;8.372;2024-01-15T14:10:55;0.70;99.90
14995;DHT22;7593;49.006;8.372;2024-01-15T14:13:23;0.80;99.90
14995;DHT22;7593;49.006;8.372;2024-01-15T14:15:49;0.80;99.90
14995;DHT22;7593;49.006;8.372;2024-01-15T14:18:17;0.80;99.90
14995;DHT22;7593;49.006;8.372;2024-01-15T14:20:44;0.80;99.90
14995;DHT22;7593;49.006;8.372;2024-01-15T14:23:12;0.90;99.90
14995;DHT22;7593;49.006;8.372;2024-01-15T14:25:39;0.80;99.90
14995;DHT22;7593;49.006;8.372;2024-01-15T14:28:06;0.90;99.90
14995;DHT22;7593;49.006;8.372;2024-01-15T14:30:33;0.90;99.90
14995;DHT22;7593;49.006;8.372;2024-01-15T14:33:00;0.90;99.90
14995;DHT22;7593;49.006;8.372;2024-01-15T14:35:28;0.90;99.90
14995;DHT22;7593;49.006;8.372;2024-01-15T14:37:54;0.90;99.90
14995;DHT22;7593;49.006;8.372;2024-01-15T14:40:24;0.90;99.90
14995;DHT22;7593;49.006;8.372;2024-01-15T14:42:51;0.90;99.90
14995;DHT22;7593;49.006;8.372;2024-01-15T14:45:18;1.00;99.90
14995;DHT22;7593;49.006;8.372;2024-01-15T14:47:45;0.90;99.90
14995;DHT22;7593;49.006;8.372;2024-01-15T14:50:12;0.90;99.90
14995;DHT22;7593;49.006;8.372;2024-01-15T14:52:40;1.00;99.90
14995;DHT22;7593;49.006;8.372;2024-01-15T14:55:08;1.00;99.90
14995;DHT22;7593;49.006;8.372;2024-01-15T14:57:35;1.00;99.90
14995;DHT22;7593;49.006;8.372;2024-01-15T15:00:03;1.00;99.90
14995;DHT22;7593;49.006;8.372;2024-01-15T15:02:32;1.00;99.90
14995;DHT22;7593;49.006;8.372;2024-01-15T15:05:00;0.90;99.90
14995;DHT22;7593;49.006;8.372;2024-01-15T15:07:26;1.00;99.90
14995;DHT22;7593;49.006;8.372;2024-01-15T15:09:54;1.00;99.90
14995;DHT22;7593;49.006;8.372;2024-01-15T15:12:21;1.00;99.90
14995;DHT22;7593;49.006;8.372;2024-01-15T15:14:48;1.00;99.90
14995;DHT22;7593;49.006;8.372;2024-01-15T15:17:15;0.90;99.90
14995;DHT22;7593;49.006;8.372;2024-01-15T15:19:42;0.90;99.90
14995;DHT22;7593;49.006;8.372;2024-01-15T15:22:09;0.90;99.90
14995;DHT22;7593;49.006;8.372;2024-01-15T15:24:36;0.90;99.90
14995;DHT22;7593;49.006;8.372;2024-01-15T15:27:05;0.90;99.90
14995;DHT22;7593;49.006;8.372;2024-01-15T15:29:32;0.90;99.90
14995;DHT22;7593;49.006;8.372;2024-01-15T15:32:00;0.90;99.90
14995;DHT22;7593;49.006;8.372;2024-01-15T15:34:27;0.90;99.90
14995;DHT22;7593;49.006;8.372;2024-01-15T15:36:54;0.90;99.90
14995;DHT22;7593;49.006;8.372;2024-01-15T15:39:21;0.90;99.90
14995;DHT22;7593;49.006;8.372;2024-01-15T15:41:48;0.90;99.90
14995;DHT22;7593;49.006;8.372;2024-01-15T15:44:16;0.90;99.90
14995;DHT22;7593;49.006;8.372;2024-01-15T15:46:44;0.90;99.90
14995;DHT22;7593;49.006;8.372;2024-01-15T15:49:10;0.90;99.90
14995;DHT22;7593;49.006;8.372;2024-01-15T15:51:37;0.90;99.90
14995;DHT22;7593;49.006;8.372;2024-01-15T15:54:04;0.90;99.90
14995;DHT22;7593;49.006;8.372;2024-01-15T15:56:32;0.90;99.90